sim
Sign-in with your pilot id or email,
or register
Callsign
Passwort

Schedule Details

Flight Number: OEF9064
Departure: Toronto Pearson International Airport (CYYZ) at 15:05
Arrival: Los Angeles International Airport (KLAX) at 19:50

Weather Information
Getting current METAR information for CYYZ 310500Z 29011KT 15SM SKC 09/04 A3012 RMK SLP202
Getting current METAR information for KLAX 310453Z 27013KT 10SM FEW220 17/14 A2995 RMK AO2 SLP139 T01670139

Schedule Frequency

Route Map